Time;durP1;ratioP1;P1;durP2;ratioP2;P2;SDS_P1;SDS_P2;PMS_P1;PMS_P2;Temp;Humidity;BMP_temperature;BMP_pressure;BME280_temperature;BME280_humidity;BME280_pressure;Samples;Min_cycle;Max_cycle;Signal;HPM_P1;HPM_P2
2022/05/01 00:01:33;;;;;;;10.90;8.07;;;10.20;99.90;;;;;;5013438;28;20425;-81
2022/05/01 00:03:59;;;;;;;10.17;7.33;;;10.20;99.90;;;;;;5013637;28;20683;-81
2022/05/01 00:06:25;;;;;;;10.70;7.47;;;10.20;99.90;;;;;;5013374;28;20181;-81
2022/05/01 00:08:50;;;;;;;12.03;9.03;;;10.20;99.90;;;;;;5013487;28;20183;-81
2022/05/01 00:11:16;;;;;;;8.53;7.10;;;10.20;99.90;;;;;;5014371;28;20242;-81
2022/05/01 00:13:43;;;;;;;9.40;7.57;;;10.20;99.90;;;;;;5014605;28;20210;-81
2022/05/01 00:16:09;;;;;;;11.67;8.00;;;10.20;99.90;;;;;;5014300;28;20327;-81
2022/05/01 00:18:35;;;;;;;10.70;8.03;;;10.20;99.90;;;;;;5014616;28;20425;-80
2022/05/01 00:21:01;;;;;;;10.53;7.50;;;10.20;99.90;;;;;;5013047;28;20251;-81
2022/05/01 00:23:27;;;;;;;9.60;7.50;;;10.20;99.90;;;;;;5014587;28;20439;-81
2022/05/01 00:25:53;;;;;;;8.20;6.90;;;10.20;99.90;;;;;;5014267;28;20806;-81
2022/05/01 00:28:18;;;;;;;9.83;7.17;;;10.30;99.90;;;;;;5013097;28;20181;-81
2022/05/01 00:30:44;;;;;;;9.50;6.87;;;10.30;99.90;;;;;;5013954;28;20179;-81
2022/05/01 00:38:38;;;;;;;12.50;7.30;;;10.20;99.90;;;;;;5014352;28;20399;-81
2022/05/01 00:41:07;;;;;;;10.20;7.00;;;10.10;99.90;;;;;;5012635;28;20931;-81
2022/05/01 00:43:51;;;;;;;9.33;7.70;;;10.00;99.90;;;;;;5013848;28;20207;-81
2022/05/01 00:46:17;;;;;;;11.30;8.50;;;9.90;99.90;;;;;;5012475;28;20408;-81
2022/05/01 00:48:43;;;;;;;10.80;7.63;;;9.80;99.90;;;;;;5012489;28;20428;-81
2022/05/01 00:51:09;;;;;;;10.80;7.33;;;9.70;99.90;;;;;;5012481;28;20946;-81
2022/05/01 00:53:35;;;;;;;8.33;6.70;;;9.70;99.90;;;;;;5053744;22;20324;-77
2022/05/01 00:56:01;;;;;;;10.07;7.17;;;9.60;99.90;;;;;;5065009;28;20234;-77
2022/05/01 00:58:29;;;;;;;8.83;7.10;;;9.50;99.90;;;;;;5032219;28;20416;-77
2022/05/01 01:00:55;;;;;;;11.83;8.30;;;9.50;99.90;;;;;;5032264;28;20423;-77
2022/05/01 01:03:21;;;;;;;10.73;7.40;;;9.40;99.90;;;;;;5032694;28;20451;-76
2022/05/01 01:05:47;;;;;;;8.30;6.23;;;9.30;99.90;;;;;;5032398;28;20484;-77
2022/05/01 01:08:13;;;;;;;10.10;6.90;;;9.30;99.90;;;;;;5032667;28;20426;-76
2022/05/01 01:10:39;;;;;;;9.70;7.20;;;9.30;99.90;;;;;;5031966;28;20510;-76
2022/05/01 01:13:05;;;;;;;8.77;6.63;;;9.20;99.90;;;;;;5031992;28;20518;-77
2022/05/01 01:15:31;;;;;;;12.00;8.23;;;9.20;99.90;;;;;;5032343;28;20212;-77
2022/05/01 01:17:58;;;;;;;10.00;6.40;;;9.10;99.90;;;;;;5032565;28;20205;-77
2022/05/01 01:20:27;;;;;;;12.23;8.20;;;9.10;99.90;;;;;;5031902;28;20961;-77
2022/05/01 01:22:55;;;;;;;11.00;7.70;;;9.00;99.90;;;;;;5032590;28;20418;-77
2022/05/01 01:25:29;;;;;;;11.13;7.60;;;8.90;99.90;;;;;;5031747;28;20432;-77
2022/05/01 01:27:58;;;;;;;8.90;7.20;;;8.80;99.90;;;;;;5032090;28;20442;-77
2022/05/01 01:33:08;;;;;;;11.07;6.70;;;8.70;99.90;;;;;;5033425;28;20798;-78
2022/05/01 01:35:37;;;;;;;8.87;6.60;;;8.70;99.90;;;;;;5031394;28;20463;-77
2022/05/01 01:38:04;;;;;;;8.13;7.23;;;8.60;99.90;;;;;;5031923;28;20181;-77
2022/05/01 01:40:32;;;;;;;8.37;6.90;;;8.60;99.90;;;;;;5031849;28;20414;-77
2022/05/01 01:42:59;;;;;;;10.47;7.43;;;8.50;99.90;;;;;;5031897;28;20802;-77
2022/05/01 01:45:28;;;;;;;9.63;7.90;;;8.50;99.90;;;;;;5031751;28;20572;-77
2022/05/01 01:48:08;;;;;;;10.40;7.37;;;8.50;99.90;;;;;;5031466;28;20941;-77
2022/05/01 01:50:33;;;;;;;10.67;7.73;;;8.40;99.90;;;;;;5031342;28;20504;-77
2022/05/01 01:52:59;;;;;;;11.20;7.53;;;8.40;99.90;;;;;;5031482;28;20459;-77
2022/05/01 01:55:25;;;;;;;9.70;6.97;;;8.40;99.90;;;;;;5031354;28;20304;-77
2022/05/01 01:57:51;;;;;;;9.93;7.87;;;8.30;99.90;;;;;;5031294;28;20860;-77
2022/05/01 02:00:17;;;;;;;9.83;7.60;;;8.40;99.90;;;;;;5031407;28;20235;-76
2022/05/01 02:02:42;;;;;;;10.00;7.90;;;8.30;99.90;;;;;;5031428;28;20222;-77
2022/05/01 02:05:09;;;;;;;9.47;7.60;;;8.30;99.90;;;;;;5031342;28;20673;-77
2022/05/01 02:07:35;;;;;;;10.03;7.13;;;8.30;99.90;;;;;;5031404;28;20291;-76
2022/05/01 02:10:01;;;;;;;13.50;7.90;;;8.20;99.90;;;;;;5031131;28;20437;-77
2022/05/01 02:12:27;;;;;;;10.80;8.20;;;8.20;99.90;;;;;;5031178;28;20419;-77
2022/05/01 02:14:53;;;;;;;11.20;7.57;;;8.20;99.90;;;;;;5030616;28;20228;-77
2022/05/01 02:17:19;;;;;;;10.97;7.17;;;8.10;99.90;;;;;;5031009;28;20473;-77
2022/05/01 02:19:45;;;;;;;9.43;7.33;;;8.00;99.90;;;;;;5030553;28;20189;-77
2022/05/01 02:22:10;;;;;;;12.00;7.83;;;8.00;99.90;;;;;;5030710;28;20427;-77
2022/05/01 02:24:36;;;;;;;11.07;7.90;;;8.00;99.90;;;;;;5030483;28;20229;-77
2022/05/01 02:27:02;;;;;;;10.80;7.53;;;8.00;99.90;;;;;;5030632;28;20200;-77
2022/05/01 02:29:28;;;;;;;11.73;8.30;;;8.00;99.90;;;;;;5030619;28;20218;-77
2022/05/01 02:31:55;;;;;;;10.57;7.87;;;7.90;99.90;;;;;;5030491;28;20418;-77
2022/05/01 02:34:22;;;;;;;12.37;7.53;;;7.90;99.90;;;;;;5030400;28;20281;-77
2022/05/01 02:36:51;;;;;;;12.87;7.60;;;7.90;99.90;;;;;;5030550;28;20470;-77
2022/05/01 02:39:22;;;;;;;11.30;8.17;;;7.90;99.90;;;;;;5030639;28;20498;-77
2022/05/01 02:41:48;;;;;;;13.40;7.73;;;7.90;99.90;;;;;;5030173;28;20429;-77
2022/05/01 02:44:14;;;;;;;11.60;7.40;;;7.80;99.90;;;;;;5030475;28;20952;-77
2022/05/01 02:46:39;;;;;;;12.23;8.50;;;7.80;99.90;;;;;;5030319;28;20449;-77
2022/05/01 02:49:05;;;;;;;10.53;6.63;;;7.80;99.90;;;;;;5030419;28;20172;-77
2022/05/01 02:51:32;;;;;;;12.13;7.00;;;7.80;99.90;;;;;;5030112;28;20686;-77
2022/05/01 02:53:58;;;;;;;11.17;7.37;;;7.80;99.90;;;;;;5030315;28;20540;-77
2022/05/01 02:56:24;;;;;;;14.60;8.30;;;7.80;99.90;;;;;;5030292;28;20455;-77
2022/05/01 02:58:50;;;;;;;10.40;7.20;;;7.70;99.90;;;;;;5030391;28;20418;-76
2022/05/01 03:01:16;;;;;;;13.37;8.53;;;7.80;99.90;;;;;;5030159;28;21024;-77
2022/05/01 03:03:42;;;;;;;11.13;7.53;;;7.80;99.90;;;;;;5046945;28;20425;-77
2022/05/01 03:06:08;;;;;;;13.20;8.27;;;7.70;99.90;;;;;;5030357;28;20211;-77
2022/05/01 03:08:34;;;;;;;11.30;7.87;;;7.70;99.90;;;;;;5032631;28;20185;-77
2022/05/01 03:11:01;;;;;;;12.43;7.03;;;7.70;99.90;;;;;;5034116;28;20496;-77
2022/05/01 03:13:28;;;;;;;11.63;8.00;;;7.70;99.90;;;;;;5034104;28;20429;-77
2022/05/01 03:15:53;;;;;;;12.40;7.67;;;7.70;99.90;;;;;;5033957;28;20482;-77
2022/05/01 03:23:49;;;;;;;10.93;7.87;;;7.50;99.90;;;;;;5035224;28;20418;-77
2022/05/01 03:26:18;;;;;;;12.40;8.00;;;7.60;99.90;;;;;;5034124;28;20443;-77
2022/05/01 03:28:48;;;;;;;13.40;8.03;;;7.60;99.90;;;;;;5034263;28;20437;-77
2022/05/01 03:31:15;;;;;;;11.90;8.30;;;7.60;99.90;;;;;;5033761;28;20426;-77
2022/05/01 03:33:42;;;;;;;9.80;7.87;;;7.50;99.90;;;;;;5034036;28;20828;-77
2022/05/01 03:36:09;;;;;;;12.33;8.33;;;7.50;99.90;;;;;;5033547;28;20501;-77
2022/05/01 03:38:36;;;;;;;11.30;7.40;;;7.50;99.90;;;;;;5033821;28;20461;-77
2022/05/01 03:41:05;;;;;;;12.43;7.23;;;7.50;99.90;;;;;;5033531;28;20456;-77
2022/05/01 03:43:32;;;;;;;11.77;7.73;;;7.50;99.90;;;;;;5033775;28;20511;-77
2022/05/01 03:45:59;;;;;;;13.17;8.70;;;7.50;99.90;;;;;;5033694;28;20454;-77
2022/05/01 03:48:25;;;;;;;14.00;7.30;;;7.50;99.90;;;;;;5033676;28;20430;-77
2022/05/01 03:50:52;;;;;;;12.20;7.47;;;7.60;99.90;;;;;;5033236;28;20512;-77
2022/05/01 03:53:18;;;;;;;12.83;8.20;;;7.60;99.90;;;;;;5033545;28;20423;-76
2022/05/01 03:55:44;;;;;;;11.50;7.80;;;7.60;99.90;;;;;;5033184;28;20562;-77
2022/05/01 03:58:10;;;;;;;11.97;8.27;;;7.70;99.90;;;;;;5033439;28;20525;-77
2022/05/01 04:00:35;;;;;;;10.87;7.57;;;7.70;99.90;;;;;;5033362;28;20183;-77
2022/05/01 04:03:04;;;;;;;11.10;8.10;;;7.80;99.90;;;;;;5033262;28;20207;-77
2022/05/01 04:05:32;;;;;;;12.97;8.37;;;7.80;99.90;;;;;;5033301;28;20266;-77
2022/05/01 04:07:58;;;;;;;15.57;8.80;;;7.90;99.90;;;;;;5049555;28;20919;-77
2022/05/01 04:10:24;;;;;;;11.07;7.37;;;7.90;99.90;;;;;;5033087;28;20449;-76
2022/05/01 04:12:50;;;;;;;13.23;7.20;;;8.00;99.90;;;;;;5033143;28;20422;-77
2022/05/01 04:15:16;;;;;;;10.23;7.80;;;8.00;99.90;;;;;;5033560;28;20214;-77
2022/05/01 04:17:43;;;;;;;12.63;7.60;;;8.10;99.90;;;;;;5033069;28;20195;-77
2022/05/01 04:20:15;;;;;;;12.30;8.97;;;8.10;99.90;;;;;;5031481;28;20430;-76
2022/05/01 04:22:48;;;;;;;14.10;8.33;;;8.10;99.90;;;;;;5032755;28;20419;-77
2022/05/01 04:25:18;;;;;;;11.07;7.40;;;8.20;99.90;;;;;;5032999;28;20579;-77
2022/05/01 04:27:45;;;;;;;10.23;7.97;;;8.30;99.90;;;;;;5032733;28;20816;-77
2022/05/01 04:30:13;;;;;;;11.60;7.87;;;8.40;99.90;;;;;;5032489;28;20849;-77
2022/05/01 04:32:49;;;;;;;14.20;8.30;;;8.40;99.90;;;;;;5032949;28;20423;-77
2022/05/01 04:35:31;;;;;;;10.57;8.00;;;8.50;99.90;;;;;;5032409;28;20469;-77
2022/05/01 04:38:00;;;;;;;12.10;8.70;;;8.50;99.90;;;;;;5032715;28;20953;-76
2022/05/01 04:40:28;;;;;;;16.97;8.50;;;8.60;99.90;;;;;;5032267;28;20415;-77
2022/05/01 04:43:06;;;;;;;14.13;8.50;;;8.60;99.90;;;;;;5032552;28;20426;-77
2022/05/01 04:45:34;;;;;;;13.63;8.83;;;8.70;99.90;;;;;;5032402;28;20786;-77
2022/05/01 04:48:03;;;;;;;13.20;7.67;;;8.70;99.90;;;;;;5032570;28;20419;-77
2022/05/01 04:50:29;;;;;;;10.53;8.50;;;8.90;99.90;;;;;;5032143;28;20843;-77
2022/05/01 04:52:56;;;;;;;11.43;7.67;;;9.00;99.90;;;;;;5032581;28;20415;-77
2022/05/01 04:55:22;;;;;;;15.23;9.63;;;9.10;99.90;;;;;;5031917;28;20482;-76
2022/05/01 04:57:48;;;;;;;12.57;8.40;;;9.20;99.90;;;;;;5032337;28;20427;-77
2022/05/01 05:00:14;;;;;;;17.33;8.63;;;9.30;99.90;;;;;;5032059;28;20473;-77
2022/05/01 05:02:41;;;;;;;12.33;8.40;;;9.40;99.90;;;;;;5032003;28;20422;-77
2022/05/01 05:05:10;;;;;;;12.23;9.17;;;9.50;99.90;;;;;;5032114;28;20507;-77
2022/05/01 05:07:36;;;;;;;12.50;8.00;;;9.60;99.90;;;;;;5031919;28;20436;-77
2022/05/01 05:10:03;;;;;;;15.00;9.20;;;9.80;99.90;;;;;;5032305;28;20477;-77
2022/05/01 05:12:29;;;;;;;13.30;8.90;;;9.90;99.90;;;;;;5032448;28;20419;-77
2022/05/01 05:14:59;;;;;;;12.23;8.60;;;10.00;99.90;;;;;;5032426;28;20472;-77
2022/05/01 05:17:25;;;;;;;13.53;8.60;;;10.00;99.90;;;;;;5031866;28;20454;-77
2022/05/01 05:19:51;;;;;;;14.70;8.77;;;10.00;99.90;;;;;;5031922;28;20428;-77
2022/05/01 05:22:17;;;;;;;12.77;8.77;;;10.10;99.90;;;;;;5031568;28;20984;-77
2022/05/01 05:24:43;;;;;;;12.70;8.70;;;10.30;99.90;;;;;;5031897;28;20180;-77
2022/05/01 05:27:09;;;;;;;12.30;8.60;;;10.40;99.90;;;;;;5031707;28;20512;-77
2022/05/01 05:29:35;;;;;;;11.80;8.27;;;10.60;99.90;;;;;;5031525;28;20921;-77
2022/05/01 05:32:00;;;;;;;13.67;8.30;;;10.70;99.90;;;;;;5031102;28;20278;-77
2022/05/01 05:34:27;;;;;;;11.40;8.60;;;10.90;99.90;;;;;;5031378;28;20597;-77
2022/05/01 05:36:53;;;;;;;14.67;9.40;;;11.00;99.90;;;;;;5031578;28;20472;-77
2022/05/01 05:39:18;;;;;;;14.07;9.00;;;11.10;99.90;;;;;;5031533;28;20964;-77
2022/05/01 05:41:45;;;;;;;13.60;8.43;;;11.30;99.90;;;;;;5031522;28;20475;-77
2022/05/01 05:44:11;;;;;;;11.03;8.10;;;11.30;99.90;;;;;;5031454;28;20173;-77
2022/05/01 05:46:36;;;;;;;12.73;9.07;;;11.40;99.90;;;;;;5031302;28;20439;-77
2022/05/01 05:49:03;;;;;;;14.00;9.43;;;11.50;99.90;;;;;;5031427;28;20412;-77
2022/05/01 05:51:28;;;;;;;15.23;8.77;;;11.50;99.90;;;;;;5031474;28;20248;-77
2022/05/01 05:53:54;;;;;;;14.00;9.17;;;11.50;99.90;;;;;;5047886;28;20526;-77
2022/05/01 05:56:21;;;;;;;11.10;8.60;;;11.40;99.90;;;;;;5031324;28;20222;-77
2022/05/01 05:58:47;;;;;;;11.30;9.03;;;11.40;99.90;;;;;;5031666;28;20186;-77
2022/05/01 06:01:13;;;;;;;12.23;8.50;;;11.40;99.90;;;;;;5030960;28;20419;-77
2022/05/01 06:03:39;;;;;;;13.53;9.30;;;11.40;99.90;;;;;;5031339;28;20187;-77
2022/05/01 06:06:06;;;;;;;12.90;9.13;;;11.30;99.90;;;;;;5031019;28;20216;-77
2022/05/01 06:08:32;;;;;;;14.70;9.67;;;11.30;99.90;;;;;;5031720;28;20502;-76
2022/05/01 06:10:58;;;;;;;15.03;9.87;;;11.30;99.90;;;;;;5030782;28;20420;-77
2022/05/01 06:13:24;;;;;;;13.80;10.30;;;11.30;99.90;;;;;;5031889;28;20547;-78
2022/05/01 06:15:50;;;;;;;14.20;9.33;;;11.30;99.90;;;;;;5032119;28;20492;-77
2022/05/01 06:18:16;;;;;;;20.17;9.80;;;11.30;99.90;;;;;;5035852;28;20179;-78
2022/05/01 06:20:42;;;;;;;15.00;8.80;;;11.30;99.90;;;;;;5038999;28;20180;-81
2022/05/01 06:23:07;;;;;;;13.70;9.30;;;11.40;99.90;;;;;;5040902;28;20214;-78
2022/05/01 06:25:38;;;;;;;15.53;10.53;;;11.50;99.90;;;;;;5039654;28;20180;-78
2022/05/01 06:28:05;;;;;;;14.17;9.30;;;11.70;99.90;;;;;;5039105;28;20187;-79
2022/05/01 06:30:32;;;;;;;15.00;9.30;;;11.70;99.90;;;;;;5039004;28;20433;-78
2022/05/01 06:33:01;;;;;;;13.30;9.30;;;11.70;99.90;;;;;;5038184;28;20466;-79
2022/05/01 06:35:31;;;;;;;10.87;7.97;;;11.80;99.90;;;;;;5036021;28;20463;-77
2022/05/01 06:37:58;;;;;;;11.00;8.47;;;12.00;99.90;;;;;;5037953;28;20434;-78
2022/05/01 06:40:24;;;;;;;12.63;8.60;;;12.20;99.90;;;;;;5036825;28;20438;-79
2022/05/01 06:42:50;;;;;;;11.30;8.67;;;12.30;99.90;;;;;;5035417;28;20788;-80
2022/05/01 06:45:16;;;;;;;15.13;9.20;;;12.40;99.90;;;;;;5035488;28;20429;-78
2022/05/01 06:47:41;;;;;;;12.70;8.27;;;12.50;99.90;;;;;;5035050;28;20203;-80
2022/05/01 06:50:07;;;;;;;13.83;8.77;;;12.60;99.90;;;;;;5033870;28;20220;-80
2022/05/01 06:52:33;;;;;;;13.97;8.57;;;12.70;99.90;;;;;;5032555;28;20176;-80
2022/05/01 06:54:59;;;;;;;14.37;9.23;;;12.70;99.90;;;;;;5033256;28;20481;-81
2022/05/01 06:57:26;;;;;;;11.37;8.60;;;12.90;99.90;;;;;;5053849;22;20223;-81
2022/05/01 06:59:51;;;;;;;11.93;8.00;;;13.00;99.90;;;;;;5050399;28;20445;-81
2022/05/01 07:02:17;;;;;;;11.70;8.03;;;13.10;99.90;;;;;;5050270;28;20426;-82
2022/05/01 07:04:43;;;;;;;12.63;8.90;;;13.20;99.90;;;;;;5050626;28;20571;-82
2022/05/01 07:07:08;;;;;;;12.30;9.67;;;13.30;99.90;;;;;;5043786;28;20200;-81
2022/05/01 07:09:34;;;;;;;12.97;9.17;;;13.30;99.90;;;;;;5030518;28;20184;-81
2022/05/01 07:12:00;;;;;;;11.53;8.60;;;13.30;99.90;;;;;;5031446;28;20231;-80
2022/05/01 07:14:26;;;;;;;12.60;8.47;;;13.40;99.90;;;;;;5030419;28;20423;-81
2022/05/01 07:16:51;;;;;;;13.30;8.33;;;13.50;99.90;;;;;;5031473;28;20687;-81
2022/05/01 07:19:17;;;;;;;11.80;8.20;;;13.50;99.90;;;;;;5030454;28;20223;-81
2022/05/01 07:21:43;;;;;;;12.10;8.73;;;13.60;99.90;;;;;;5030421;28;20177;-81
2022/05/01 07:24:08;;;;;;;9.87;7.63;;;13.60;99.90;;;;;;5030375;28;20192;-81
2022/05/01 07:26:34;;;;;;;11.97;8.40;;;13.80;99.90;;;;;;5031394;28;20231;-82
2022/05/01 07:29:00;;;;;;;12.20;8.97;;;13.90;99.90;;;;;;5031750;28;20640;-81
2022/05/01 07:31:27;;;;;;;10.43;8.23;;;14.00;99.90;;;;;;5031243;28;20179;-81
2022/05/01 07:33:53;;;;;;;15.23;9.00;;;14.10;99.90;;;;;;5030245;28;20518;-81
2022/05/01 07:36:21;;;;;;;13.70;10.40;;;14.20;99.90;;;;;;5031387;28;20581;-81
2022/05/01 07:38:49;;;;;;;14.03;9.53;;;14.10;99.90;;;;;;5031689;28;20419;-81
2022/05/01 07:41:19;;;;;;;13.23;9.07;;;14.30;99.90;;;;;;5031205;28;20490;-81
2022/05/01 07:43:45;;;;;;;12.70;9.00;;;14.50;99.90;;;;;;5030105;28;20786;-81
2022/05/01 07:46:11;;;;;;;13.03;9.03;;;14.70;99.90;;;;;;5030026;28;20792;-81
2022/05/01 07:48:37;;;;;;;10.57;8.40;;;14.50;99.90;;;;;;5029949;28;20513;-81
2022/05/01 07:51:03;;;;;;;12.00;9.20;;;14.50;99.90;;;;;;5029978;28;20242;-81
2022/05/01 07:53:29;;;;;;;12.20;9.17;;;14.80;99.90;;;;;;5030602;28;20189;-81
2022/05/01 07:55:56;;;;;;;11.80;8.10;;;15.00;99.90;;;;;;5034687;28;20467;-81
2022/05/01 07:58:22;;;;;;;10.43;8.37;;;15.30;99.90;;;;;;5034573;28;20208;-81
2022/05/01 08:00:48;;;;;;;10.93;7.93;;;15.50;99.90;;;;;;5033289;28;20473;-81
2022/05/01 08:05:58;;;;;;;10.73;7.40;;;16.00;99.90;;;;;;5034584;28;20187;-81
2022/05/01 08:08:25;;;;;;;11.30;8.00;;;16.40;99.90;;;;;;5034526;28;20961;-82
2022/05/01 08:10:50;;;;;;;12.90;8.60;;;17.10;99.90;;;;;;5033196;28;20431;-81
2022/05/01 08:13:16;;;;;;;11.90;8.87;;;17.60;99.90;;;;;;5034623;28;20473;-83
2022/05/01 08:15:41;;;;;;;12.70;8.83;;;18.20;99.90;;;;;;5034785;28;20239;-82
2022/05/01 08:21:10;;;;;;;13.37;8.93;;;19.00;99.90;;;;;;5034509;28;20171;-81
2022/05/01 08:23:37;;;;;;;9.93;8.73;;;19.50;99.90;;;;;;5034727;28;20469;-82
2022/05/01 08:26:04;;;;;;;11.47;9.10;;;19.80;99.90;;;;;;5034320;28;20415;-82
2022/05/01 08:28:31;;;;;;;11.30;8.03;;;19.90;99.90;;;;;;5033166;28;20443;-82
2022/05/01 08:30:57;;;;;;;10.23;8.27;;;20.00;99.90;;;;;;5034120;28;20502;-83
2022/05/01 08:33:22;;;;;;;14.97;8.97;;;20.00;99.90;;;;;;5030981;28;20435;-81
2022/05/01 08:35:49;;;;;;;11.13;9.57;;;20.30;99.90;;;;;;5016572;28;20498;-82
2022/05/01 08:38:14;;;;;;;10.00;8.30;;;20.40;99.90;;;;;;5045696;28;20640;-81
2022/05/01 08:40:42;;;;;;;12.57;8.73;;;20.40;99.90;;;;;;5033395;28;20427;-81
2022/05/01 08:43:07;;;;;;;11.23;8.70;;;20.10;99.90;;;;;;5033845;28;20184;-81
2022/05/01 08:46:01;;;;;;;11.10;8.50;;;20.20;99.90;;;;;;5034052;28;20805;-81
2022/05/01 08:48:37;;;;;;;9.87;7.80;;;20.40;99.90;;;;;;5023332;28;20448;-81
2022/05/01 08:51:05;;;;;;;10.27;7.70;;;20.80;99.90;;;;;;5032626;28;20925;-81
2022/05/01 08:53:31;;;;;;;9.37;7.40;;;21.20;99.90;;;;;;5032703;28;20804;-82
2022/05/01 08:55:59;;;;;;;9.40;7.37;;;21.20;99.00;;;;;;5033984;28;20465;-81
2022/05/01 08:58:28;;;;;;;9.60;7.87;;;21.70;99.90;;;;;;5033556;28;20485;-81
2022/05/01 09:00:54;;;;;;;11.27;7.60;;;21.70;98.30;;;;;;5032403;28;20473;-81
2022/05/01 09:03:19;;;;;;;9.27;7.60;;;22.00;94.90;;;;;;5032627;28;20423;-81
2022/05/01 09:05:45;;;;;;;10.47;6.83;;;22.80;91.80;;;;;;5033096;28;20267;-81
2022/05/01 09:08:11;;;;;;;9.73;7.57;;;23.20;88.50;;;;;;5032331;28;20651;-81
2022/05/01 09:10:41;;;;;;;10.27;7.97;;;22.90;81.10;;;;;;5033604;28;20184;-81
2022/05/01 09:13:07;;;;;;;10.33;8.03;;;23.10;79.00;;;;;;5049084;28;20427;-81
2022/05/01 09:15:40;;;;;;;9.27;7.33;;;23.60;78.10;;;;;;5033508;28;20954;-81
2022/05/01 09:18:08;;;;;;;10.07;7.90;;;23.90;72.20;;;;;;5033664;28;20438;-81
2022/05/01 09:20:54;;;;;;;8.30;6.60;;;24.10;70.30;;;;;;5033556;28;20411;-81
2022/05/01 09:23:35;;;;;;;9.93;8.07;;;24.50;72.40;;;;;;5031547;28;20502;-81
2022/05/01 09:26:00;;;;;;;11.27;8.70;;;23.40;64.20;;;;;;5034478;28;20790;-82
2022/05/01 09:28:26;;;;;;;10.80;7.90;;;23.90;67.70;;;;;;5054321;28;20443;-82
2022/05/01 09:30:52;;;;;;;11.40;8.90;;;23.70;63.60;;;;;;5037259;28;20618;-82
2022/05/01 09:33:20;;;;;;;11.40;8.47;;;22.60;61.50;;;;;;5038985;28;20239;-82
2022/05/01 09:35:47;;;;;;;12.30;8.17;;;22.00;64.30;;;;;;5039118;28;20581;-82
2022/05/01 09:38:18;;;;;;;9.80;8.33;;;21.70;65.90;;;;;;5038741;28;20431;-82
2022/05/01 09:40:51;;;;;;;8.63;7.10;;;21.90;69.30;;;;;;5038371;28;20469;-82
2022/05/01 09:43:38;;;;;;;10.67;8.93;;;21.60;69.20;;;;;;5038778;28;20415;-82
2022/05/01 09:46:15;;;;;;;9.20;7.70;;;21.00;68.10;;;;;;5038322;28;21004;-82
2022/05/01 09:48:43;;;;;;;13.50;9.37;;;20.70;69.20;;;;;;5037948;28;20415;-82
2022/05/01 09:51:17;;;;;;;11.80;9.53;;;19.90;68.80;;;;;;5038012;28;20465;-81
2022/05/01 09:53:43;;;;;;;11.30;8.27;;;19.60;70.10;;;;;;5036789;28;20941;-80
2022/05/01 09:56:09;;;;;;;11.77;8.80;;;20.00;77.70;;;;;;5036665;28;20454;-81
2022/05/01 09:58:40;;;;;;;12.93;7.80;;;19.90;75.10;;;;;;5036358;28;20454;-83
2022/05/01 10:01:14;;;;;;;11.03;8.73;;;20.00;72.90;;;;;;5028436;28;20501;-84
2022/05/01 10:03:47;;;;;;;11.07;8.70;;;20.00;74.80;;;;;;5031717;28;20944;-84
2022/05/01 10:06:15;;;;;;;11.07;7.77;;;20.40;76.10;;;;;;5017011;28;20428;-83
2022/05/01 10:08:42;;;;;;;10.23;8.17;;;21.00;71.50;;;;;;5011647;28;20451;-84
2022/05/01 10:11:09;;;;;;;10.40;7.73;;;21.80;69.10;;;;;;5012053;28;20470;-84
2022/05/01 10:13:36;;;;;;;10.20;7.53;;;23.30;71.90;;;;;;5021176;28;20451;-83
2022/05/01 10:16:06;;;;;;;10.90;8.10;;;23.50;64.60;;;;;;5032040;28;20473;-83
2022/05/01 10:18:31;;;;;;;10.23;7.70;;;23.50;62.90;;;;;;5032955;28;20964;-82
2022/05/01 10:20:57;;;;;;;11.93;8.27;;;23.00;60.70;;;;;;5032698;28;20427;-83
2022/05/01 10:23:23;;;;;;;10.47;8.07;;;23.20;61.50;;;;;;5032399;28;20643;-84
2022/05/01 10:26:16;;;;;;;9.50;7.30;;;23.30;59.80;;;;;;5032748;28;20238;-83
2022/05/01 10:28:50;;;;;;;9.77;8.13;;;22.80;58.80;;;;;;5033890;28;20407;-83
2022/05/01 10:34:40;;;;;;;10.97;8.73;;;24.00;58.50;;;;;;5033550;28;20406;-83
2022/05/01 10:37:15;;;;;;;11.50;8.97;;;24.20;55.40;;;;;;5032205;28;20445;-84
2022/05/01 10:39:41;;;;;;;10.97;7.60;;;24.10;56.20;;;;;;5033400;28;20403;-83
2022/05/01 10:42:08;;;;;;;10.53;7.70;;;24.70;56.50;;;;;;5032044;28;20434;-83
2022/05/01 10:44:36;;;;;;;10.27;8.10;;;24.50;53.70;;;;;;5033058;28;20434;-83
2022/05/01 10:47:13;;;;;;;10.07;8.27;;;24.70;52.50;;;;;;5031700;28;20439;-85
2022/05/01 10:49:43;;;;;;;11.60;8.37;;;25.00;53.30;;;;;;5033555;28;20494;-83
2022/05/01 10:52:20;;;;;;;9.47;7.20;;;24.60;53.40;;;;;;5033072;28;20426;-83
2022/05/01 10:54:49;;;;;;;10.70;8.77;;;25.10;53.60;;;;;;5032737;28;20458;-83
2022/05/01 10:57:17;;;;;;;8.67;7.17;;;24.80;51.60;;;;;;5032907;28;20450;-83
2022/05/01 10:59:46;;;;;;;11.17;7.50;;;25.20;52.40;;;;;;5033393;28;20884;-83
2022/05/01 11:02:28;;;;;;;11.07;8.63;;;25.20;50.40;;;;;;5032571;28;20413;-83
2022/05/01 11:04:54;;;;;;;11.13;7.70;;;24.50;50.10;;;;;;5032532;28;20469;-83
2022/05/01 11:07:34;;;;;;;12.87;8.50;;;24.70;50.90;;;;;;5032299;28;20427;-83
2022/05/01 11:10:00;;;;;;;10.23;7.70;;;24.20;52.70;;;;;;5033073;28;20413;-83
2022/05/01 11:12:28;;;;;;;9.23;7.40;;;23.80;53.30;;;;;;5031055;28;20477;-83
2022/05/01 11:15:06;;;;;;;10.60;8.30;;;24.30;51.50;;;;;;5028809;28;20458;-82
2022/05/01 11:17:36;;;;;;;9.60;7.20;;;23.80;49.40;;;;;;5032647;28;20492;-82
2022/05/01 11:20:23;;;;;;;12.60;8.00;;;23.70;49.20;;;;;;5032993;28;20498;-83
2022/05/01 11:22:48;;;;;;;9.43;7.50;;;23.50;49.40;;;;;;5033535;28;20403;-83
2022/05/01 11:25:36;;;;;;;10.13;7.90;;;22.90;51.00;;;;;;5032606;28;20498;-83
2022/05/01 11:28:02;;;;;;;10.07;8.33;;;23.40;53.10;;;;;;5032528;28;20493;-83
2022/05/01 11:30:27;;;;;;;10.00;7.40;;;23.80;51.40;;;;;;5036040;28;20414;-83
2022/05/01 11:33:11;;;;;;;11.60;7.93;;;23.50;50.90;;;;;;5035085;28;20659;-83
2022/05/01 11:35:54;;;;;;;13.00;9.40;;;23.20;49.30;;;;;;5036813;28;20513;-82
2022/05/01 11:38:51;;;;;;;10.97;8.10;;;22.60;51.50;;;;;;5035227;28;20457;-82
2022/05/01 11:41:39;;;;;;;10.87;7.93;;;22.30;53.60;;;;;;5033661;28;20422;-83
2022/05/01 11:44:24;;;;;;;10.07;8.33;;;23.30;51.70;;;;;;5034972;28;20428;-83
2022/05/01 11:46:55;;;;;;;10.30;8.20;;;23.30;50.50;;;;;;5047901;22;20904;-78
2022/05/01 11:49:21;;;;;;;9.47;7.67;;;22.90;52.00;;;;;;5044540;28;20418;-79
2022/05/01 11:51:47;;;;;;;12.23;8.70;;;22.70;53.00;;;;;;5045190;28;20417;-79
2022/05/01 11:54:15;;;;;;;9.50;7.70;;;22.80;53.80;;;;;;5043824;28;20183;-79
2022/05/01 12:02:25;;;;;;;10.50;8.10;;;23.70;52.70;;;;;;5059445;28;20405;-79
2022/05/01 12:04:51;;;;;;;10.70;7.70;;;24.20;52.30;;;;;;5042359;28;20845;-79
2022/05/01 12:07:18;;;;;;;9.20;8.30;;;25.10;52.20;;;;;;5040596;28;20453;-79
2022/05/01 12:09:46;;;;;;;11.40;8.60;;;25.40;49.90;;;;;;5041215;28;20933;-80
2022/05/01 12:12:14;;;;;;;9.67;8.67;;;25.00;49.20;;;;;;5041636;28;20429;-78
2022/05/01 12:14:41;;;;;;;9.97;8.20;;;25.00;48.90;;;;;;5041545;28;20484;-79
2022/05/01 12:17:07;;;;;;;9.77;7.77;;;24.70;49.30;;;;;;5040845;28;20434;-79
2022/05/01 12:19:38;;;;;;;10.00;7.90;;;24.40;48.90;;;;;;5043408;28;20442;-80
2022/05/01 12:22:05;;;;;;;10.07;7.63;;;25.50;49.40;;;;;;5040828;28;20925;-79
2022/05/01 12:24:32;;;;;;;10.27;9.17;;;25.80;46.70;;;;;;5041854;28;20414;-78
2022/05/01 12:26:59;;;;;;;10.27;8.07;;;25.70;46.40;;;;;;5041521;28;20434;-80
2022/05/01 12:29:25;;;;;;;9.70;8.07;;;26.20;47.00;;;;;;5042306;28;20933;-81
2022/05/01 12:32:09;;;;;;;10.70;7.83;;;25.80;46.20;;;;;;5039529;28;20541;-79
2022/05/01 12:34:49;;;;;;;11.10;7.50;;;24.90;47.90;;;;;;5039147;28;20417;-77
2022/05/01 12:37:27;;;;;;;10.70;8.40;;;25.00;49.10;;;;;;5038398;28;20449;-77
2022/05/01 12:40:03;;;;;;;9.80;7.90;;;24.10;48.30;;;;;;5036895;28;20418;-78
2022/05/01 12:45:38;;;;;;;8.77;7.50;;;24.00;48.80;;;;;;5054963;28;20424;-78
2022/05/01 12:48:09;;;;;;;9.47;7.90;;;24.70;50.50;;;;;;5037247;28;20495;-77
2022/05/01 12:50:37;;;;;;;12.57;9.23;;;24.80;48.80;;;;;;5036493;28;20528;-77
2022/05/01 12:53:28;;;;;;;10.80;8.77;;;24.50;47.80;;;;;;5036372;28;20428;-77
2022/05/01 12:55:56;;;;;;;9.77;7.23;;;23.70;47.10;;;;;;5036626;28;20851;-79
2022/05/01 12:58:35;;;;;;;9.17;7.50;;;23.70;48.30;;;;;;5038304;28;20838;-79
2022/05/01 13:01:04;;;;;;;10.17;8.70;;;23.30;49.20;;;;;;5037555;28;20461;-81
2022/05/01 13:03:37;;;;;;;8.90;8.00;;;22.30;48.60;;;;;;5040226;28;20420;-80
2022/05/01 13:06:07;;;;;;;10.73;8.80;;;22.10;48.40;;;;;;5039914;28;20450;-81
2022/05/01 13:08:35;;;;;;;10.17;7.67;;;21.50;50.60;;;;;;5039821;28;20476;-79
2022/05/01 13:11:21;;;;;;;9.70;7.70;;;20.90;53.30;;;;;;5038986;28;20453;-80
2022/05/01 13:13:56;;;;;;;9.87;8.00;;;20.90;53.50;;;;;;5040135;28;20521;-79
2022/05/01 13:16:32;;;;;;;8.90;7.20;;;20.70;55.20;;;;;;5038705;28;20513;-81
2022/05/01 13:19:15;;;;;;;11.70;8.90;;;20.70;55.90;;;;;;5039700;28;21098;-79
2022/05/01 13:21:52;;;;;;;10.93;8.23;;;20.60;56.80;;;;;;5038972;28;20426;-79